sensor_id;sensor_type;location;lat;lon;timestamp;P1;durP1;ratioP1;P2;durP2;ratioP2
18224;SDS011;9237;48.590;8.854;2022-07-11T00:01:03;0.70;;;0.70;;
18224;SDS011;9237;48.590;8.854;2022-07-11T00:03:30;0.80;;;0.80;;
18224;SDS011;9237;48.590;8.854;2022-07-11T00:05:57;0.70;;;0.70;;
18224;SDS011;9237;48.590;8.854;2022-07-11T00:08:25;0.70;;;0.70;;
18224;SDS011;9237;48.590;8.854;2022-07-11T00:10:52;0.70;;;0.70;;
18224;SDS011;9237;48.590;8.854;2022-07-11T00:13:19;0.80;;;0.80;;
18224;SDS011;9237;48.590;8.854;2022-07-11T00:15:46;0.70;;;0.70;;
18224;SDS011;9237;48.590;8.854;2022-07-11T00:18:13;0.70;;;0.70;;
18224;SDS011;9237;48.590;8.854;2022-07-11T00:20:40;0.70;;;0.70;;
18224;SDS011;9237;48.590;8.854;2022-07-11T00:23:07;0.90;;;0.90;;
18224;SDS011;9237;48.590;8.854;2022-07-11T00:25:35;0.90;;;0.90;;
18224;SDS011;9237;48.590;8.854;2022-07-11T00:28:02;0.80;;;0.80;;
18224;SDS011;9237;48.590;8.854;2022-07-11T00:30:29;0.80;;;0.80;;
18224;SDS011;9237;48.590;8.854;2022-07-11T00:32:56;0.80;;;0.80;;
18224;SDS011;9237;48.590;8.854;2022-07-11T00:35:22;0.80;;;0.80;;
18224;SDS011;9237;48.590;8.854;2022-07-11T00:37:49;0.80;;;0.80;;
18224;SDS011;9237;48.590;8.854;2022-07-11T00:40:16;0.80;;;0.80;;
18224;SDS011;9237;48.590;8.854;2022-07-11T00:42:44;0.80;;;0.80;;
18224;SDS011;9237;48.590;8.854;2022-07-11T00:45:11;0.70;;;0.70;;
18224;SDS011;9237;48.590;8.854;2022-07-11T00:47:38;0.80;;;0.80;;
18224;SDS011;9237;48.590;8.854;2022-07-11T00:50:05;0.70;;;0.70;;
18224;SDS011;9237;48.590;8.854;2022-07-11T00:52:32;0.80;;;0.80;;
18224;SDS011;9237;48.590;8.854;2022-07-11T00:55:02;0.77;;;0.77;;
18224;SDS011;9237;48.590;8.854;2022-07-11T00:57:29;0.80;;;0.80;;
18224;SDS011;9237;48.590;8.854;2022-07-11T00:59:58;0.80;;;0.80;;
18224;SDS011;9237;48.590;8.854;2022-07-11T01:02:25;0.70;;;0.70;;
18224;SDS011;9237;48.590;8.854;2022-07-11T01:04:52;0.70;;;0.70;;
18224;SDS011;9237;48.590;8.854;2022-07-11T01:07:19;0.80;;;0.80;;
18224;SDS011;9237;48.590;8.854;2022-07-11T01:09:46;0.70;;;0.70;;
18224;SDS011;9237;48.590;8.854;2022-07-11T01:12:13;0.70;;;0.70;;
18224;SDS011;9237;48.590;8.854;2022-07-11T01:14:49;0.80;;;0.80;;
18224;SDS011;9237;48.590;8.854;2022-07-11T01:17:18;0.80;;;0.80;;
18224;SDS011;9237;48.590;8.854;2022-07-11T01:19:46;0.80;;;0.80;;
18224;SDS011;9237;48.590;8.854;2022-07-11T01:22:13;0.70;;;0.70;;
18224;SDS011;9237;48.590;8.854;2022-07-11T01:24:42;0.70;;;0.70;;
18224;SDS011;9237;48.590;8.854;2022-07-11T01:27:09;0.70;;;0.70;;
18224;SDS011;9237;48.590;8.854;2022-07-11T01:29:37;0.70;;;0.70;;
18224;SDS011;9237;48.590;8.854;2022-07-11T01:32:05;0.70;;;0.70;;
18224;SDS011;9237;48.590;8.854;2022-07-11T01:34:32;0.70;;;0.70;;
18224;SDS011;9237;48.590;8.854;2022-07-11T01:36:59;0.70;;;0.70;;
18224;SDS011;9237;48.590;8.854;2022-07-11T01:39:26;0.70;;;0.70;;
18224;SDS011;9237;48.590;8.854;2022-07-11T01:41:57;0.70;;;0.70;;
18224;SDS011;9237;48.590;8.854;2022-07-11T01:44:24;0.60;;;0.60;;
18224;SDS011;9237;48.590;8.854;2022-07-11T01:46:51;0.70;;;0.70;;
18224;SDS011;9237;48.590;8.854;2022-07-11T01:49:18;0.70;;;0.70;;
18224;SDS011;9237;48.590;8.854;2022-07-11T01:51:45;0.70;;;0.70;;
18224;SDS011;9237;48.590;8.854;2022-07-11T01:54:12;0.70;;;0.70;;
18224;SDS011;9237;48.590;8.854;2022-07-11T01:56:39;0.80;;;0.80;;
18224;SDS011;9237;48.590;8.854;2022-07-11T01:59:08;0.70;;;0.70;;
18224;SDS011;9237;48.590;8.854;2022-07-11T02:01:34;0.70;;;0.70;;
18224;SDS011;9237;48.590;8.854;2022-07-11T02:04:01;0.70;;;0.70;;
18224;SDS011;9237;48.590;8.854;2022-07-11T02:06:28;0.70;;;0.70;;
18224;SDS011;9237;48.590;8.854;2022-07-11T02:08:55;0.70;;;0.70;;
18224;SDS011;9237;48.590;8.854;2022-07-11T02:11:22;0.70;;;0.70;;
18224;SDS011;9237;48.590;8.854;2022-07-11T02:13:50;0.70;;;0.70;;
18224;SDS011;9237;48.590;8.854;2022-07-11T02:16:18;0.70;;;0.70;;
18224;SDS011;9237;48.590;8.854;2022-07-11T02:18:45;0.70;;;0.70;;
18224;SDS011;9237;48.590;8.854;2022-07-11T02:21:11;0.70;;;0.70;;
18224;SDS011;9237;48.590;8.854;2022-07-11T02:23:38;0.70;;;0.70;;
18224;SDS011;9237;48.590;8.854;2022-07-11T02:26:05;0.70;;;0.70;;
18224;SDS011;9237;48.590;8.854;2022-07-11T02:28:32;0.70;;;0.70;;
18224;SDS011;9237;48.590;8.854;2022-07-11T02:31:01;0.70;;;0.70;;
18224;SDS011;9237;48.590;8.854;2022-07-11T02:33:30;0.70;;;0.70;;
18224;SDS011;9237;48.590;8.854;2022-07-11T02:35:56;0.70;;;0.70;;
18224;SDS011;9237;48.590;8.854;2022-07-11T02:38:24;0.80;;;0.80;;
18224;SDS011;9237;48.590;8.854;2022-07-11T02:40:51;0.80;;;0.80;;
18224;SDS011;9237;48.590;8.854;2022-07-11T02:43:18;0.80;;;0.80;;
18224;SDS011;9237;48.590;8.854;2022-07-11T02:45:45;0.70;;;0.70;;
18224;SDS011;9237;48.590;8.854;2022-07-11T02:48:12;0.80;;;0.80;;
18224;SDS011;9237;48.590;8.854;2022-07-11T02:50:40;0.80;;;0.80;;
18224;SDS011;9237;48.590;8.854;2022-07-11T02:53:07;0.80;;;0.80;;
18224;SDS011;9237;48.590;8.854;2022-07-11T02:55:34;0.80;;;0.80;;
18224;SDS011;9237;48.590;8.854;2022-07-11T02:58:01;0.80;;;0.80;;
18224;SDS011;9237;48.590;8.854;2022-07-11T03:00:28;0.90;;;0.90;;
18224;SDS011;9237;48.590;8.854;2022-07-11T03:02:55;0.80;;;0.80;;
18224;SDS011;9237;48.590;8.854;2022-07-11T03:05:22;0.70;;;0.70;;
18224;SDS011;9237;48.590;8.854;2022-07-11T03:07:51;0.70;;;0.70;;
18224;SDS011;9237;48.590;8.854;2022-07-11T03:10:18;0.80;;;0.80;;
18224;SDS011;9237;48.590;8.854;2022-07-11T03:12:45;0.80;;;0.80;;
18224;SDS011;9237;48.590;8.854;2022-07-11T03:15:11;0.80;;;0.80;;
18224;SDS011;9237;48.590;8.854;2022-07-11T03:17:38;0.80;;;0.80;;
18224;SDS011;9237;48.590;8.854;2022-07-11T03:20:06;0.80;;;0.80;;
18224;SDS011;9237;48.590;8.854;2022-07-11T03:22:33;0.80;;;0.80;;
18224;SDS011;9237;48.590;8.854;2022-07-11T03:25:02;0.70;;;0.70;;
18224;SDS011;9237;48.590;8.854;2022-07-11T03:27:30;0.80;;;0.80;;
18224;SDS011;9237;48.590;8.854;2022-07-11T03:29:57;0.70;;;0.70;;
18224;SDS011;9237;48.590;8.854;2022-07-11T03:32:24;0.70;;;0.70;;
18224;SDS011;9237;48.590;8.854;2022-07-11T03:34:51;0.70;;;0.70;;
18224;SDS011;9237;48.590;8.854;2022-07-11T03:37:32;0.70;;;0.70;;
18224;SDS011;9237;48.590;8.854;2022-07-11T03:39:59;0.70;;;0.70;;
18224;SDS011;9237;48.590;8.854;2022-07-11T03:42:27;0.70;;;0.70;;
18224;SDS011;9237;48.590;8.854;2022-07-11T03:44:54;0.80;;;0.80;;
18224;SDS011;9237;48.590;8.854;2022-07-11T03:47:21;0.70;;;0.70;;
18224;SDS011;9237;48.590;8.854;2022-07-11T03:49:48;0.80;;;0.80;;
18224;SDS011;9237;48.590;8.854;2022-07-11T03:52:15;0.80;;;0.80;;
18224;SDS011;9237;48.590;8.854;2022-07-11T03:54:41;0.70;;;0.70;;
18224;SDS011;9237;48.590;8.854;2022-07-11T03:57:10;0.70;;;0.70;;
18224;SDS011;9237;48.590;8.854;2022-07-11T03:59:38;0.70;;;0.70;;
18224;SDS011;9237;48.590;8.854;2022-07-11T04:02:05;0.70;;;0.70;;
18224;SDS011;9237;48.590;8.854;2022-07-11T04:04:32;0.80;;;0.80;;
18224;SDS011;9237;48.590;8.854;2022-07-11T04:06:59;0.80;;;0.80;;
18224;SDS011;9237;48.590;8.854;2022-07-11T04:09:27;0.80;;;0.80;;
18224;SDS011;9237;48.590;8.854;2022-07-11T04:11:54;0.70;;;0.70;;
18224;SDS011;9237;48.590;8.854;2022-07-11T04:14:21;0.73;;;0.73;;
18224;SDS011;9237;48.590;8.854;2022-07-11T04:16:49;0.70;;;0.70;;
18224;SDS011;9237;48.590;8.854;2022-07-11T04:19:16;0.70;;;0.70;;
18224;SDS011;9237;48.590;8.854;2022-07-11T04:21:43;0.70;;;0.70;;
18224;SDS011;9237;48.590;8.854;2022-07-11T04:24:10;0.70;;;0.70;;
18224;SDS011;9237;48.590;8.854;2022-07-11T04:26:37;0.70;;;0.70;;
18224;SDS011;9237;48.590;8.854;2022-07-11T04:29:04;0.70;;;0.70;;
18224;SDS011;9237;48.590;8.854;2022-07-11T04:31:31;0.70;;;0.70;;
18224;SDS011;9237;48.590;8.854;2022-07-11T04:33:59;0.70;;;0.70;;
18224;SDS011;9237;48.590;8.854;2022-07-11T04:36:26;0.70;;;0.70;;
18224;SDS011;9237;48.590;8.854;2022-07-11T04:38:53;0.60;;;0.60;;
18224;SDS011;9237;48.590;8.854;2022-07-11T04:41:19;0.70;;;0.70;;
18224;SDS011;9237;48.590;8.854;2022-07-11T04:43:46;0.70;;;0.70;;
18224;SDS011;9237;48.590;8.854;2022-07-11T04:46:13;0.70;;;0.70;;
18224;SDS011;9237;48.590;8.854;2022-07-11T04:48:40;0.70;;;0.70;;
18224;SDS011;9237;48.590;8.854;2022-07-11T04:51:08;0.70;;;0.70;;
18224;SDS011;9237;48.590;8.854;2022-07-11T04:53:35;0.70;;;0.70;;
18224;SDS011;9237;48.590;8.854;2022-07-11T04:56:03;0.70;;;0.70;;
18224;SDS011;9237;48.590;8.854;2022-07-11T04:58:30;0.70;;;0.70;;
18224;SDS011;9237;48.590;8.854;2022-07-11T05:00:57;0.70;;;0.70;;
18224;SDS011;9237;48.590;8.854;2022-07-11T05:03:24;0.70;;;0.70;;
18224;SDS011;9237;48.590;8.854;2022-07-11T05:05:51;0.70;;;0.70;;
18224;SDS011;9237;48.590;8.854;2022-07-11T05:08:19;0.70;;;0.70;;
18224;SDS011;9237;48.590;8.854;2022-07-11T05:10:46;0.70;;;0.70;;
18224;SDS011;9237;48.590;8.854;2022-07-11T05:13:14;0.80;;;0.80;;
18224;SDS011;9237;48.590;8.854;2022-07-11T05:15:41;0.80;;;0.80;;
18224;SDS011;9237;48.590;8.854;2022-07-11T05:18:09;0.70;;;0.70;;
18224;SDS011;9237;48.590;8.854;2022-07-11T05:20:36;0.70;;;0.70;;
18224;SDS011;9237;48.590;8.854;2022-07-11T05:23:03;0.70;;;0.70;;
18224;SDS011;9237;48.590;8.854;2022-07-11T05:25:31;0.70;;;0.70;;
18224;SDS011;9237;48.590;8.854;2022-07-11T05:27:58;0.70;;;0.70;;
18224;SDS011;9237;48.590;8.854;2022-07-11T05:30:25;0.70;;;0.70;;
18224;SDS011;9237;48.590;8.854;2022-07-11T05:32:52;0.70;;;0.70;;
18224;SDS011;9237;48.590;8.854;2022-07-11T05:35:19;0.70;;;0.70;;
18224;SDS011;9237;48.590;8.854;2022-07-11T05:37:46;0.70;;;0.70;;
18224;SDS011;9237;48.590;8.854;2022-07-11T05:40:12;0.70;;;0.70;;
18224;SDS011;9237;48.590;8.854;2022-07-11T05:42:41;0.80;;;0.80;;
18224;SDS011;9237;48.590;8.854;2022-07-11T05:45:08;0.70;;;0.70;;
18224;SDS011;9237;48.590;8.854;2022-07-11T05:47:35;0.70;;;0.70;;
18224;SDS011;9237;48.590;8.854;2022-07-11T05:50:03;0.70;;;0.70;;
18224;SDS011;9237;48.590;8.854;2022-07-11T05:52:30;0.80;;;0.80;;
18224;SDS011;9237;48.590;8.854;2022-07-11T05:54:57;0.70;;;0.70;;
18224;SDS011;9237;48.590;8.854;2022-07-11T05:57:25;0.70;;;0.70;;
18224;SDS011;9237;48.590;8.854;2022-07-11T05:59:53;0.70;;;0.70;;
18224;SDS011;9237;48.590;8.854;2022-07-11T06:02:20;0.70;;;0.70;;
18224;SDS011;9237;48.590;8.854;2022-07-11T06:04:47;0.70;;;0.70;;
18224;SDS011;9237;48.590;8.854;2022-07-11T06:07:14;0.70;;;0.70;;
18224;SDS011;9237;48.590;8.854;2022-07-11T06:10:01;0.70;;;0.70;;
18224;SDS011;9237;48.590;8.854;2022-07-11T06:12:26;0.60;;;0.60;;
18224;SDS011;9237;48.590;8.854;2022-07-11T06:14:55;0.60;;;0.60;;
18224;SDS011;9237;48.590;8.854;2022-07-11T06:17:22;0.60;;;0.60;;
18224;SDS011;9237;48.590;8.854;2022-07-11T06:19:49;0.70;;;0.70;;
18224;SDS011;9237;48.590;8.854;2022-07-11T06:22:16;0.60;;;0.60;;
18224;SDS011;9237;48.590;8.854;2022-07-11T06:24:43;0.63;;;0.63;;
18224;SDS011;9237;48.590;8.854;2022-07-11T06:27:10;0.60;;;0.60;;
18224;SDS011;9237;48.590;8.854;2022-07-11T06:29:37;0.70;;;0.70;;
18224;SDS011;9237;48.590;8.854;2022-07-11T06:32:07;0.70;;;0.70;;
18224;SDS011;9237;48.590;8.854;2022-07-11T06:34:34;0.60;;;0.60;;
18224;SDS011;9237;48.590;8.854;2022-07-11T06:37:02;0.60;;;0.60;;
18224;SDS011;9237;48.590;8.854;2022-07-11T06:39:29;0.60;;;0.60;;
18224;SDS011;9237;48.590;8.854;2022-07-11T06:41:56;0.60;;;0.60;;
18224;SDS011;9237;48.590;8.854;2022-07-11T06:44:23;0.60;;;0.60;;
18224;SDS011;9237;48.590;8.854;2022-07-11T06:46:50;0.60;;;0.60;;
18224;SDS011;9237;48.590;8.854;2022-07-11T06:49:18;0.60;;;0.60;;
18224;SDS011;9237;48.590;8.854;2022-07-11T06:51:45;0.60;;;0.60;;
18224;SDS011;9237;48.590;8.854;2022-07-11T06:54:12;0.50;;;0.50;;
18224;SDS011;9237;48.590;8.854;2022-07-11T06:56:39;0.50;;;0.50;;
18224;SDS011;9237;48.590;8.854;2022-07-11T06:59:06;0.53;;;0.53;;
18224;SDS011;9237;48.590;8.854;2022-07-11T07:01:32;0.57;;;0.57;;
18224;SDS011;9237;48.590;8.854;2022-07-11T07:03:59;0.60;;;0.60;;
18224;SDS011;9237;48.590;8.854;2022-07-11T07:06:27;0.50;;;0.50;;
18224;SDS011;9237;48.590;8.854;2022-07-11T07:08:54;0.57;;;0.57;;
18224;SDS011;9237;48.590;8.854;2022-07-11T07:11:21;0.60;;;0.60;;
18224;SDS011;9237;48.590;8.854;2022-07-11T07:13:48;0.50;;;0.50;;
18224;SDS011;9237;48.590;8.854;2022-07-11T07:16:16;0.50;;;0.50;;
18224;SDS011;9237;48.590;8.854;2022-07-11T07:18:42;0.50;;;0.50;;
18224;SDS011;9237;48.590;8.854;2022-07-11T07:21:11;0.50;;;0.50;;
18224;SDS011;9237;48.590;8.854;2022-07-11T07:23:39;0.50;;;0.50;;
18224;SDS011;9237;48.590;8.854;2022-07-11T07:26:06;0.50;;;0.50;;
18224;SDS011;9237;48.590;8.854;2022-07-11T07:28:33;0.50;;;0.50;;
18224;SDS011;9237;48.590;8.854;2022-07-11T07:31:00;0.50;;;0.50;;
18224;SDS011;9237;48.590;8.854;2022-07-11T07:33:27;0.50;;;0.50;;
18224;SDS011;9237;48.590;8.854;2022-07-11T07:35:54;0.50;;;0.50;;
18224;SDS011;9237;48.590;8.854;2022-07-11T07:38:21;0.60;;;0.60;;
18224;SDS011;9237;48.590;8.854;2022-07-11T07:40:49;0.60;;;0.60;;
18224;SDS011;9237;48.590;8.854;2022-07-11T07:43:16;0.50;;;0.50;;
18224;SDS011;9237;48.590;8.854;2022-07-11T07:45:43;0.50;;;0.50;;
18224;SDS011;9237;48.590;8.854;2022-07-11T07:48:10;0.50;;;0.50;;
18224;SDS011;9237;48.590;8.854;2022-07-11T07:50:37;0.50;;;0.50;;
18224;SDS011;9237;48.590;8.854;2022-07-11T07:53:04;0.50;;;0.50;;
18224;SDS011;9237;48.590;8.854;2022-07-11T07:55:32;0.50;;;0.50;;
18224;SDS011;9237;48.590;8.854;2022-07-11T07:58:01;0.40;;;0.40;;
18224;SDS011;9237;48.590;8.854;2022-07-11T08:00:28;0.50;;;0.50;;
18224;SDS011;9237;48.590;8.854;2022-07-11T08:03:12;0.40;;;0.40;;
18224;SDS011;9237;48.590;8.854;2022-07-11T08:05:39;0.40;;;0.40;;
18224;SDS011;9237;48.590;8.854;2022-07-11T08:08:06;0.50;;;0.50;;
18224;SDS011;9237;48.590;8.854;2022-07-11T08:10:33;0.50;;;0.50;;
18224;SDS011;9237;48.590;8.854;2022-07-11T08:13:01;0.50;;;0.50;;
18224;SDS011;9237;48.590;8.854;2022-07-11T08:15:28;0.50;;;0.50;;
18224;SDS011;9237;48.590;8.854;2022-07-11T08:17:55;0.50;;;0.50;;
18224;SDS011;9237;48.590;8.854;2022-07-11T08:20:22;0.50;;;0.50;;
18224;SDS011;9237;48.590;8.854;2022-07-11T08:22:49;0.50;;;0.50;;
18224;SDS011;9237;48.590;8.854;2022-07-11T08:25:17;0.50;;;0.50;;
18224;SDS011;9237;48.590;8.854;2022-07-11T08:27:43;0.50;;;0.50;;
18224;SDS011;9237;48.590;8.854;2022-07-11T08:30:12;0.47;;;0.47;;
18224;SDS011;9237;48.590;8.854;2022-07-11T08:32:39;0.50;;;0.50;;
18224;SDS011;9237;48.590;8.854;2022-07-11T08:35:06;0.40;;;0.40;;
18224;SDS011;9237;48.590;8.854;2022-07-11T08:37:33;0.40;;;0.40;;
18224;SDS011;9237;48.590;8.854;2022-07-11T08:40:01;0.40;;;0.40;;
18224;SDS011;9237;48.590;8.854;2022-07-11T08:42:29;0.40;;;0.40;;
18224;SDS011;9237;48.590;8.854;2022-07-11T08:44:57;0.40;;;0.40;;
18224;SDS011;9237;48.590;8.854;2022-07-11T08:47:25;0.40;;;0.40;;
18224;SDS011;9237;48.590;8.854;2022-07-11T08:49:54;0.40;;;0.40;;
18224;SDS011;9237;48.590;8.854;2022-07-11T08:52:24;0.40;;;0.40;;
18224;SDS011;9237;48.590;8.854;2022-07-11T08:54:51;0.40;;;0.40;;
18224;SDS011;9237;48.590;8.854;2022-07-11T08:57:18;0.40;;;0.40;;
18224;SDS011;9237;48.590;8.854;2022-07-11T08:59:45;0.40;;;0.40;;
18224;SDS011;9237;48.590;8.854;2022-07-11T09:02:15;0.40;;;0.40;;
18224;SDS011;9237;48.590;8.854;2022-07-11T09:04:44;0.40;;;0.40;;
18224;SDS011;9237;48.590;8.854;2022-07-11T09:07:11;0.40;;;0.40;;
18224;SDS011;9237;48.590;8.854;2022-07-11T09:09:38;0.40;;;0.40;;
18224;SDS011;9237;48.590;8.854;2022-07-11T09:12:09;0.30;;;0.30;;
18224;SDS011;9237;48.590;8.854;2022-07-11T09:14:37;0.30;;;0.30;;
18224;SDS011;9237;48.590;8.854;2022-07-11T09:17:04;0.30;;;0.30;;
18224;SDS011;9237;48.590;8.854;2022-07-11T09:19:34;0.30;;;0.30;;
18224;SDS011;9237;48.590;8.854;2022-07-11T09:22:05;0.30;;;0.30;;
18224;SDS011;9237;48.590;8.854;2022-07-11T09:24:52;0.30;;;0.30;;
18224;SDS011;9237;48.590;8.854;2022-07-11T09:27:44;0.40;;;0.40;;
18224;SDS011;9237;48.590;8.854;2022-07-11T09:30:17;0.38;;;0.38;;
18224;SDS011;9237;48.590;8.854;2022-07-11T09:32:53;0.30;;;0.30;;
18224;SDS011;9237;48.590;8.854;2022-07-11T09:35:21;0.30;;;0.30;;
18224;SDS011;9237;48.590;8.854;2022-07-11T09:37:49;0.35;;;0.35;;
18224;SDS011;9237;48.590;8.854;2022-07-11T09:40:16;0.30;;;0.30;;
18224;SDS011;9237;48.590;8.854;2022-07-11T09:42:47;0.40;;;0.40;;
18224;SDS011;9237;48.590;8.854;2022-07-11T09:45:15;0.40;;;0.40;;
18224;SDS011;9237;48.590;8.854;2022-07-11T09:47:43;0.40;;;0.40;;
18224;SDS011;9237;48.590;8.854;2022-07-11T09:50:11;0.35;;;0.35;;
18224;SDS011;9237;48.590;8.854;2022-07-11T09:52:38;0.40;;;0.40;;
18224;SDS011;9237;48.590;8.854;2022-07-11T09:55:11;0.30;;;0.30;;
18224;SDS011;9237;48.590;8.854;2022-07-11T09:57:39;0.30;;;0.30;;
18224;SDS011;9237;48.590;8.854;2022-07-11T10:00:06;0.40;;;0.40;;
18224;SDS011;9237;48.590;8.854;2022-07-11T10:02:35;0.40;;;0.40;;
18224;SDS011;9237;48.590;8.854;2022-07-11T10:05:02;0.40;;;0.40;;
18224;SDS011;9237;48.590;8.854;2022-07-11T10:07:29;0.40;;;0.40;;
18224;SDS011;9237;48.590;8.854;2022-07-11T10:09:57;0.40;;;0.40;;
18224;SDS011;9237;48.590;8.854;2022-07-11T10:12:26;0.30;;;0.30;;
18224;SDS011;9237;48.590;8.854;2022-07-11T10:14:54;0.30;;;0.30;;
18224;SDS011;9237;48.590;8.854;2022-07-11T10:17:25;0.30;;;0.30;;
18224;SDS011;9237;48.590;8.854;2022-07-11T10:19:57;0.32;;;0.32;;
18224;SDS011;9237;48.590;8.854;2022-07-11T10:22:31;0.30;;;0.30;;
18224;SDS011;9237;48.590;8.854;2022-07-11T10:25:06;0.40;;;0.40;;
18224;SDS011;9237;48.590;8.854;2022-07-11T10:27:48;0.40;;;0.40;;
18224;SDS011;9237;48.590;8.854;2022-07-11T10:30:45;0.30;;;0.30;;
18224;SDS011;9237;48.590;8.854;2022-07-11T10:33:13;0.50;;;0.50;;
18224;SDS011;9237;48.590;8.854;2022-07-11T10:35:41;0.40;;;0.40;;
18224;SDS011;9237;48.590;8.854;2022-07-11T10:38:10;0.40;;;0.40;;
18224;SDS011;9237;48.590;8.854;2022-07-11T10:40:40;0.40;;;0.40;;
18224;SDS011;9237;48.590;8.854;2022-07-11T10:43:13;0.40;;;0.40;;
18224;SDS011;9237;48.590;8.854;2022-07-11T10:45:55;0.40;;;0.40;;
18224;SDS011;9237;48.590;8.854;2022-07-11T10:48:23;0.40;;;0.40;;
18224;SDS011;9237;48.590;8.854;2022-07-11T10:51:01;0.30;;;0.30;;
18224;SDS011;9237;48.590;8.854;2022-07-11T10:53:39;0.30;;;0.30;;
18224;SDS011;9237;48.590;8.854;2022-07-11T10:56:15;0.40;;;0.40;;
18224;SDS011;9237;48.590;8.854;2022-07-11T10:59:12;0.50;;;0.50;;
18224;SDS011;9237;48.590;8.854;2022-07-11T11:04:44;0.40;;;0.40;;
18224;SDS011;9237;48.590;8.854;2022-07-11T11:07:33;0.40;;;0.40;;
18224;SDS011;9237;48.590;8.854;2022-07-11T11:10:03;0.40;;;0.40;;
18224;SDS011;9237;48.590;8.854;2022-07-11T11:15:40;0.40;;;0.40;;
18224;SDS011;9237;48.590;8.854;2022-07-11T11:21:20;0.40;;;0.40;;
18224;SDS011;9237;48.590;8.854;2022-07-11T11:24:04;0.40;;;0.40;;
18224;SDS011;9237;48.590;8.854;2022-07-11T11:26:44;0.47;;;0.47;;
18224;SDS011;9237;48.590;8.854;2022-07-11T11:29:16;0.40;;;0.40;;
18224;SDS011;9237;48.590;8.854;2022-07-11T11:31:49;0.40;;;0.40;;
18224;SDS011;9237;48.590;8.854;2022-07-11T11:34:21;0.40;;;0.40;;
18224;SDS011;9237;48.590;8.854;2022-07-11T11:36:51;0.40;;;0.40;;
18224;SDS011;9237;48.590;8.854;2022-07-11T11:39:26;0.40;;;0.40;;
18224;SDS011;9237;48.590;8.854;2022-07-11T11:42:00;0.40;;;0.40;;
18224;SDS011;9237;48.590;8.854;2022-07-11T11:44:31;0.40;;;0.40;;
18224;SDS011;9237;48.590;8.854;2022-07-11T11:47:00;0.40;;;0.40;;
18224;SDS011;9237;48.590;8.854;2022-07-11T11:49:27;0.40;;;0.40;;
18224;SDS011;9237;48.590;8.854;2022-07-11T11:51:54;0.40;;;0.40;;
18224;SDS011;9237;48.590;8.854;2022-07-11T11:54:21;0.40;;;0.40;;
18224;SDS011;9237;48.590;8.854;2022-07-11T11:56:50;0.40;;;0.40;;
18224;SDS011;9237;48.590;8.854;2022-07-11T11:59:17;0.40;;;0.40;;
18224;SDS011;9237;48.590;8.854;2022-07-11T12:01:54;0.40;;;0.40;;
18224;SDS011;9237;48.590;8.854;2022-07-11T12:04:22;0.40;;;0.40;;
18224;SDS011;9237;48.590;8.854;2022-07-11T12:06:49;0.40;;;0.40;;
18224;SDS011;9237;48.590;8.854;2022-07-11T12:09:17;0.40;;;0.40;;
18224;SDS011;9237;48.590;8.854;2022-07-11T12:11:46;0.40;;;0.40;;
18224;SDS011;9237;48.590;8.854;2022-07-11T12:14:34;0.30;;;0.30;;
18224;SDS011;9237;48.590;8.854;2022-07-11T12:17:01;0.40;;;0.40;;
18224;SDS011;9237;48.590;8.854;2022-07-11T12:19:33;0.35;;;0.35;;
18224;SDS011;9237;48.590;8.854;2022-07-11T12:22:03;0.40;;;0.40;;
18224;SDS011;9237;48.590;8.854;2022-07-11T12:24:31;0.30;;;0.30;;
18224;SDS011;9237;48.590;8.854;2022-07-11T12:26:59;0.30;;;0.30;;
18224;SDS011;9237;48.590;8.854;2022-07-11T12:29:26;0.30;;;0.30;;
18224;SDS011;9237;48.590;8.854;2022-07-11T12:31:54;0.30;;;0.30;;
18224;SDS011;9237;48.590;8.854;2022-07-11T12:34:23;0.30;;;0.30;;
18224;SDS011;9237;48.590;8.854;2022-07-11T12:37:09;0.30;;;0.30;;
18224;SDS011;9237;48.590;8.854;2022-07-11T12:39:38;0.40;;;0.40;;
18224;SDS011;9237;48.590;8.854;2022-07-11T12:42:20;0.40;;;0.40;;
18224;SDS011;9237;48.590;8.854;2022-07-11T12:44:54;0.40;;;0.40;;
18224;SDS011;9237;48.590;8.854;2022-07-11T12:47:26;0.30;;;0.30;;
18224;SDS011;9237;48.590;8.854;2022-07-11T12:49:56;0.30;;;0.30;;
18224;SDS011;9237;48.590;8.854;2022-07-11T12:52:35;0.30;;;0.30;;
18224;SDS011;9237;48.590;8.854;2022-07-11T12:55:02;0.30;;;0.30;;
18224;SDS011;9237;48.590;8.854;2022-07-11T12:57:30;0.30;;;0.30;;
18224;SDS011;9237;48.590;8.854;2022-07-11T12:59:57;0.30;;;0.30;;
18224;SDS011;9237;48.590;8.854;2022-07-11T13:02:40;0.30;;;0.30;;
18224;SDS011;9237;48.590;8.854;2022-07-11T13:05:07;0.30;;;0.30;;
18224;SDS011;9237;48.590;8.854;2022-07-11T13:07:35;0.30;;;0.30;;
18224;SDS011;9237;48.590;8.854;2022-07-11T13:10:20;0.30;;;0.30;;
18224;SDS011;9237;48.590;8.854;2022-07-11T13:12:48;0.30;;;0.30;;
18224;SDS011;9237;48.590;8.854;2022-07-11T13:15:16;0.30;;;0.30;;
18224;SDS011;9237;48.590;8.854;2022-07-11T13:17:45;0.30;;;0.30;;
18224;SDS011;9237;48.590;8.854;2022-07-11T13:20:14;0.30;;;0.30;;
18224;SDS011;9237;48.590;8.854;2022-07-11T13:22:44;0.30;;;0.30;;
18224;SDS011;9237;48.590;8.854;2022-07-11T13:25:13;0.30;;;0.30;;
18224;SDS011;9237;48.590;8.854;2022-07-11T13:27:41;0.30;;;0.30;;
18224;SDS011;9237;48.590;8.854;2022-07-11T13:30:09;0.30;;;0.30;;
18224;SDS011;9237;48.590;8.854;2022-07-11T13:32:41;0.30;;;0.30;;
18224;SDS011;9237;48.590;8.854;2022-07-11T13:35:09;0.30;;;0.30;;
18224;SDS011;9237;48.590;8.854;2022-07-11T13:37:36;0.30;;;0.30;;
18224;SDS011;9237;48.590;8.854;2022-07-11T13:40:08;0.30;;;0.30;;
18224;SDS011;9237;48.590;8.854;2022-07-11T13:42:36;0.32;;;0.32;;
18224;SDS011;9237;48.590;8.854;2022-07-11T13:45:05;0.40;;;0.40;;
18224;SDS011;9237;48.590;8.854;2022-07-11T13:47:33;0.30;;;0.30;;
18224;SDS011;9237;48.590;8.854;2022-07-11T13:50:01;0.40;;;0.40;;
18224;SDS011;9237;48.590;8.854;2022-07-11T13:52:28;0.40;;;0.40;;
18224;SDS011;9237;48.590;8.854;2022-07-11T13:54:55;0.30;;;0.30;;
18224;SDS011;9237;48.590;8.854;2022-07-11T13:57:25;0.30;;;0.30;;
18224;SDS011;9237;48.590;8.854;2022-07-11T13:59:52;0.30;;;0.30;;
18224;SDS011;9237;48.590;8.854;2022-07-11T14:02:19;0.40;;;0.40;;
18224;SDS011;9237;48.590;8.854;2022-07-11T14:04:46;0.30;;;0.30;;
18224;SDS011;9237;48.590;8.854;2022-07-11T14:07:12;0.30;;;0.30;;
18224;SDS011;9237;48.590;8.854;2022-07-11T14:09:40;0.38;;;0.38;;
18224;SDS011;9237;48.590;8.854;2022-07-11T14:12:07;0.40;;;0.40;;
18224;SDS011;9237;48.590;8.854;2022-07-11T14:14:36;0.40;;;0.40;;
18224;SDS011;9237;48.590;8.854;2022-07-11T14:17:03;0.40;;;0.40;;
18224;SDS011;9237;48.590;8.854;2022-07-11T14:19:30;0.40;;;0.40;;
18224;SDS011;9237;48.590;8.854;2022-07-11T14:21:57;0.30;;;0.30;;
18224;SDS011;9237;48.590;8.854;2022-07-11T14:24:25;0.32;;;0.32;;
18224;SDS011;9237;48.590;8.854;2022-07-11T14:26:52;0.40;;;0.40;;
18224;SDS011;9237;48.590;8.854;2022-07-11T14:29:20;0.40;;;0.40;;
18224;SDS011;9237;48.590;8.854;2022-07-11T14:31:48;0.40;;;0.40;;
18224;SDS011;9237;48.590;8.854;2022-07-11T14:34:18;0.40;;;0.40;;
18224;SDS011;9237;48.590;8.854;2022-07-11T14:36:45;0.40;;;0.40;;
18224;SDS011;9237;48.590;8.854;2022-07-11T14:39:12;0.40;;;0.40;;
18224;SDS011;9237;48.590;8.854;2022-07-11T14:41:39;0.30;;;0.30;;
18224;SDS011;9237;48.590;8.854;2022-07-11T14:44:07;0.40;;;0.40;;
18224;SDS011;9237;48.590;8.854;2022-07-11T14:46:34;0.30;;;0.30;;
18224;SDS011;9237;48.590;8.854;2022-07-11T14:49:02;0.30;;;0.30;;
18224;SDS011;9237;48.590;8.854;2022-07-11T14:51:30;0.30;;;0.30;;
18224;SDS011;9237;48.590;8.854;2022-07-11T14:53:57;0.30;;;0.30;;
18224;SDS011;9237;48.590;8.854;2022-07-11T14:56:25;0.40;;;0.40;;
18224;SDS011;9237;48.590;8.854;2022-07-11T14:58:51;0.40;;;0.40;;
18224;SDS011;9237;48.590;8.854;2022-07-11T15:01:19;0.40;;;0.40;;
18224;SDS011;9237;48.590;8.854;2022-07-11T15:03:45;0.40;;;0.40;;
18224;SDS011;9237;48.590;8.854;2022-07-11T15:06:14;0.40;;;0.40;;
18224;SDS011;9237;48.590;8.854;2022-07-11T15:08:43;0.40;;;0.40;;
18224;SDS011;9237;48.590;8.854;2022-07-11T15:11:27;0.40;;;0.40;;
18224;SDS011;9237;48.590;8.854;2022-07-11T15:14:14;0.40;;;0.40;;
18224;SDS011;9237;48.590;8.854;2022-07-11T15:16:41;0.40;;;0.40;;
18224;SDS011;9237;48.590;8.854;2022-07-11T15:19:10;0.40;;;0.40;;